Marianna, Florida
Current Conditions -  °F | °C
As of 3:11 AM on Monday 24 Nov 2014 (Local Time) from KMAI Reporting Station
Overcast Overcast  
Wind Chill: 66°   Ceiling: 600
Heat Index: 66°   Visibility: 10mi
Dew Point: 66°   Wind: 7mph
Humidity: 100%   Direction: 170°S
Pressure: 29.78"   Gusts: NA
Location:  30.78°N, 85.23°W
Report Text: KMAI 240911Z AUTO 17006KT 10SM BKN006 BKN025 OVC050 19/19 A2978 RMK AO2 RAE0858 P0000 T01890189 $
Loading
Personal Weather Stations






























Interactive Weather Map New forecast layout! Learn more

10-Day Weather Forecast

Advertisements
Track Severe Weather on mobile